createdAt,value
2022-12-11T00:00:25.805Z,24.60
2022-12-11T00:02:52.571Z,23.67
2022-12-11T00:05:19.332Z,23.67
2022-12-11T00:07:46.136Z,25.43
2022-12-11T00:10:13.002Z,25.93
2022-12-11T00:12:39.768Z,23.97
2022-12-11T00:15:07.037Z,24.50
2022-12-11T00:17:33.905Z,24.13
2022-12-11T00:20:00.654Z,25.40
2022-12-11T00:22:29.403Z,24.43
2022-12-11T00:24:56.180Z,24.67
2022-12-11T00:27:22.961Z,24.37
2022-12-11T00:29:49.627Z,26.07
2022-12-11T00:32:16.392Z,24.47
2022-12-11T00:34:43.157Z,25.57
2022-12-11T00:37:09.836Z,25.37
2022-12-11T00:39:37.809Z,25.43
2022-12-11T00:42:04.647Z,24.50
2022-12-11T00:44:31.492Z,25.67
2022-12-11T00:46:58.209Z,26.20
2022-12-11T00:49:24.982Z,25.60
2022-12-11T00:51:51.695Z,22.97
2022-12-11T00:54:18.437Z,26.00
2022-12-11T00:56:45.114Z,23.60
2022-12-11T00:59:11.792Z,25.93
2022-12-11T01:01:38.896Z,26.53
2022-12-11T01:04:05.795Z,25.57
2022-12-11T01:06:32.475Z,27.27
2022-12-11T01:09:17.963Z,26.03
2022-12-11T01:11:44.646Z,26.47
2022-12-11T01:14:11.916Z,24.90
2022-12-11T01:16:38.824Z,25.50
2022-12-11T01:19:05.734Z,27.43
2022-12-11T01:21:32.499Z,26.20
2022-12-11T01:23:59.177Z,27.97
2022-12-11T01:26:25.947Z,27.80
2022-12-11T01:28:52.903Z,24.77
2022-12-11T01:31:22.258Z,27.20
2022-12-11T01:33:49.047Z,25.87
2022-12-11T01:36:19.057Z,27.23
2022-12-11T01:38:47.114Z,27.33
2022-12-11T01:41:14.727Z,27.77
2022-12-11T01:44:00.167Z,26.70
2022-12-11T01:46:27.441Z,26.57
2022-12-11T01:48:54.791Z,28.17
2022-12-11T01:51:22.484Z,25.77
2022-12-11T01:53:55.167Z,27.40
2022-12-11T01:56:22.017Z,23.73
2022-12-11T01:58:53.630Z,27.10
2022-12-11T02:02:01.062Z,27.20
2022-12-11T02:04:29.403Z,26.80
2022-12-11T02:06:56.368Z,25.70
2022-12-11T02:09:27.093Z,27.00
2022-12-11T02:12:12.316Z,27.43
2022-12-11T02:14:45.383Z,29.27
2022-12-11T02:17:23.425Z,26.40
2022-12-11T02:20:12.940Z,26.03
2022-12-11T02:23:04.366Z,27.00
2022-12-11T02:25:46.909Z,25.83
2022-12-11T02:28:25.650Z,25.10
2022-12-11T02:30:57.110Z,25.93
2022-12-11T02:33:37.194Z,25.53
2022-12-11T02:36:06.940Z,26.30
2022-12-11T02:38:37.759Z,25.33
2022-12-11T02:41:07.499Z,25.00
2022-12-11T02:43:35.441Z,26.50
2022-12-11T02:46:04.584Z,24.00
2022-12-11T02:48:33.197Z,24.40
2022-12-11T02:51:03.075Z,25.80
2022-12-11T02:53:32.343Z,25.67
2022-12-11T02:56:06.415Z,26.77
2022-12-11T02:58:34.319Z,25.60
2022-12-11T03:01:01.288Z,24.97
2022-12-11T03:03:29.640Z,26.47
2022-12-11T03:05:56.753Z,25.27
2022-12-11T03:08:23.551Z,26.37
2022-12-11T03:10:50.523Z,26.23
2022-12-11T03:13:20.928Z,28.50
2022-12-11T03:16:06.644Z,25.43
2022-12-11T03:18:55.336Z,25.77
2022-12-11T03:21:48.890Z,25.33
2022-12-11T03:24:26.356Z,24.37
2022-12-11T03:27:01.419Z,25.63
2022-12-11T03:29:35.110Z,24.90
2022-12-11T03:32:13.497Z,24.53
2022-12-11T03:34:48.536Z,24.77
2022-12-11T03:37:16.458Z,28.23
2022-12-11T03:39:51.458Z,26.00
2022-12-11T03:42:21.679Z,24.73
2022-12-11T03:44:50.632Z,26.33
2022-12-11T03:47:20.694Z,26.27
2022-12-11T03:49:50.397Z,26.23
2022-12-11T03:52:18.099Z,25.77
2022-12-11T03:54:48.860Z,26.67
2022-12-11T03:57:20.846Z,26.43
2022-12-11T03:59:48.305Z,26.83
2022-12-11T04:02:14.974Z,26.17
2022-12-11T04:04:42.207Z,25.03
2022-12-11T04:07:09.484Z,24.67
2022-12-11T04:09:36.567Z,24.10
2022-12-11T04:12:03.371Z,24.43
2022-12-11T04:14:48.830Z,23.97
2022-12-11T04:17:35.732Z,22.90
2022-12-11T04:20:21.724Z,23.67
2022-12-11T04:23:07.237Z,24.57
2022-12-11T04:25:33.904Z,23.40
2022-12-11T04:28:00.618Z,22.33
2022-12-11T04:30:33.778Z,22.67
2022-12-11T04:33:01.369Z,24.90
2022-12-11T04:35:28.472Z,22.27
2022-12-11T04:37:55.239Z,24.47
2022-12-11T04:40:22.342Z,23.33
2022-12-11T04:42:49.010Z,23.23
2022-12-11T04:45:15.843Z,23.80
2022-12-11T04:47:42.814Z,24.67
2022-12-11T04:50:11.598Z,25.80
2022-12-11T04:52:38.348Z,24.50
2022-12-11T04:55:06.295Z,24.30
2022-12-11T04:57:33.135Z,25.13
2022-12-11T05:00:00.048Z,23.77
2022-12-11T05:02:27.198Z,22.57
2022-12-11T05:04:53.924Z,23.20
2022-12-11T05:07:20.605Z,24.30
2022-12-11T05:09:47.403Z,24.93
2022-12-11T05:12:14.087Z,24.93
2022-12-11T05:14:40.825Z,23.83
2022-12-11T05:17:07.498Z,25.73
2022-12-11T05:19:34.170Z,25.30
2022-12-11T05:22:00.866Z,26.40
2022-12-11T05:24:27.537Z,23.03
2022-12-11T05:26:54.217Z,24.73
2022-12-11T05:29:20.887Z,25.53
2022-12-11T05:31:47.588Z,25.47
2022-12-11T05:34:15.850Z,26.13
2022-12-11T05:36:42.543Z,26.00
2022-12-11T05:39:11.364Z,27.53
2022-12-11T05:41:38.038Z,26.53
2022-12-11T05:44:04.808Z,25.40
2022-12-11T05:46:31.680Z,24.87
2022-12-11T05:49:01.738Z,24.53
2022-12-11T05:51:29.350Z,26.53
2022-12-11T05:53:56.994Z,24.53
2022-12-11T05:56:29.580Z,24.67
2022-12-11T05:58:57.149Z,25.87
2022-12-11T06:01:41.227Z,26.40
2022-12-11T06:04:09.980Z,26.13
2022-12-11T06:06:37.230Z,25.13
2022-12-11T06:09:05.454Z,26.17
2022-12-11T06:11:34.023Z,25.60
2022-12-11T06:14:03.117Z,26.57
2022-12-11T06:16:29.881Z,27.73
2022-12-11T06:18:58.415Z,27.57
2022-12-11T06:21:29.929Z,25.83
2022-12-11T06:23:58.739Z,25.83
2022-12-11T06:26:26.619Z,25.90
2022-12-11T06:28:53.524Z,27.17
2022-12-11T06:31:20.817Z,27.47
2022-12-11T06:33:48.203Z,25.83
2022-12-11T06:36:21.521Z,26.60
2022-12-11T06:38:48.333Z,28.03
2022-12-11T06:41:15.928Z,27.00
2022-12-11T06:43:43.289Z,25.90
2022-12-11T06:46:13.123Z,26.10
2022-12-11T06:48:42.208Z,27.47
2022-12-11T06:51:11.212Z,26.73
2022-12-11T06:53:38.887Z,27.47
2022-12-11T06:56:14.044Z,29.03
2022-12-11T06:58:42.414Z,26.77
2022-12-11T07:01:23.296Z,26.87
2022-12-11T07:03:52.348Z,27.73
2022-12-11T07:06:18.993Z,25.33
2022-12-11T07:08:45.694Z,28.67
2022-12-11T07:11:14.976Z,26.53
2022-12-11T07:13:42.316Z,27.67
2022-12-11T07:16:11.328Z,26.87
2022-12-11T07:18:44.333Z,25.17
2022-12-11T07:21:13.004Z,25.73
2022-12-11T07:23:40.419Z,26.67
2022-12-11T07:26:09.523Z,27.00
2022-12-11T07:28:36.471Z,26.00
2022-12-11T07:31:15.304Z,26.80
2022-12-11T07:33:42.599Z,27.50
2022-12-11T07:36:12.140Z,28.77
2022-12-11T07:38:39.262Z,27.70
2022-12-11T07:41:10.493Z,28.10
2022-12-11T07:43:37.531Z,26.63
2022-12-11T07:46:06.717Z,27.30
2022-12-11T07:48:36.133Z,27.37
2022-12-11T07:51:09.831Z,26.33
2022-12-11T07:53:36.518Z,27.70
2022-12-11T07:56:03.925Z,25.73
2022-12-11T07:58:30.660Z,26.30
2022-12-11T08:00:58.250Z,27.67
2022-12-11T08:03:25.421Z,26.23
2022-12-11T08:05:53.238Z,26.83
2022-12-11T08:08:20.345Z,26.67
2022-12-11T08:10:47.162Z,25.97
2022-12-11T08:13:13.904Z,27.53
2022-12-11T08:15:40.762Z,27.37
2022-12-11T08:18:07.422Z,29.93
2022-12-11T08:20:34.078Z,27.37
2022-12-11T08:23:02.887Z,27.53
2022-12-11T08:25:29.613Z,26.97
2022-12-11T08:27:56.331Z,26.23
2022-12-11T08:30:22.996Z,29.30
2022-12-11T08:32:49.687Z,27.63
2022-12-11T08:35:16.501Z,27.40
2022-12-11T08:37:43.193Z,28.73
2022-12-11T08:40:10.921Z,27.83
2022-12-11T08:42:37.889Z,28.57
2022-12-11T08:45:05.210Z,26.73
2022-12-11T08:47:32.023Z,27.37
2022-12-11T08:49:58.715Z,27.97
2022-12-11T08:52:25.421Z,26.93
2022-12-11T08:54:52.098Z,25.43
2022-12-11T08:57:18.956Z,26.03
2022-12-11T08:59:45.656Z,25.60
2022-12-11T09:02:13.471Z,23.23
2022-12-11T09:04:40.435Z,24.20
2022-12-11T09:07:07.102Z,23.53
2022-12-11T09:09:33.938Z,23.97
2022-12-11T09:12:01.581Z,24.07
2022-12-11T09:14:28.351Z,24.10
2022-12-11T09:16:55.416Z,23.27
2022-12-11T09:19:22.191Z,22.53
2022-12-11T09:21:49.088Z,22.63
2022-12-11T09:24:15.842Z,24.00
2022-12-11T09:26:42.905Z,23.77
2022-12-11T09:29:11.142Z,21.83
2022-12-11T09:31:37.860Z,23.10
2022-12-11T09:34:07.300Z,21.27
2022-12-11T09:36:34.973Z,20.63
2022-12-11T09:39:04.078Z,20.87
2022-12-11T09:41:57.116Z,20.37
2022-12-11T09:44:32.696Z,20.83
2022-12-11T09:47:00.463Z,18.53
2022-12-11T09:49:38.515Z,17.93
2022-12-11T09:52:17.628Z,17.37
2022-12-11T09:54:54.291Z,18.30
2022-12-11T09:57:28.190Z,17.13
2022-12-11T10:00:11.387Z,18.43
2022-12-11T10:03:07.215Z,18.30
2022-12-11T10:05:44.695Z,20.50
2022-12-11T10:08:19.433Z,18.17
2022-12-11T10:11:16.675Z,17.30
2022-12-11T10:13:58.695Z,16.83
2022-12-11T10:16:46.991Z,15.93
2022-12-11T10:19:34.660Z,16.70
2022-12-11T10:22:02.334Z,16.33
2022-12-11T10:25:10.157Z,17.67
2022-12-11T10:27:32.514Z,17.63
2022-12-11T10:30:14.893Z,16.33
2022-12-11T10:33:17.040Z,17.27
2022-12-11T10:35:48.222Z,17.67
2022-12-11T10:38:23.947Z,16.70
2022-12-11T10:40:57.956Z,15.73
2022-12-11T10:43:36.292Z,17.67
2022-12-11T10:46:04.788Z,16.40
2022-12-11T10:48:31.547Z,16.87
2022-12-11T10:51:02.502Z,16.33
2022-12-11T10:53:30.357Z,16.00
2022-12-11T10:55:58.606Z,16.23
2022-12-11T10:58:33.880Z,15.80
2022-12-11T11:01:03.511Z,15.73
2022-12-11T11:03:30.380Z,16.60
2022-12-11T11:06:17.270Z,17.73
2022-12-11T11:08:55.951Z,15.77
2022-12-11T11:11:33.940Z,15.60
2022-12-11T11:14:09.989Z,14.70
2022-12-11T11:16:38.859Z,16.07
2022-12-11T11:19:06.507Z,15.80
2022-12-11T11:21:35.894Z,16.40
2022-12-11T11:24:03.606Z,15.40
2022-12-11T11:26:56.709Z,14.13
2022-12-11T11:29:30.530Z,14.13
2022-12-11T11:32:02.535Z,14.70
2022-12-11T11:34:30.938Z,15.00
2022-12-11T11:37:00.875Z,15.03
2022-12-11T11:39:38.410Z,15.03
2022-12-11T11:42:18.591Z,14.67
2022-12-11T11:44:59.636Z,15.80
2022-12-11T11:47:30.419Z,15.20
2022-12-11T11:50:25.501Z,14.43
2022-12-11T11:53:00.331Z,15.37
2022-12-11T11:55:57.793Z,15.53
2022-12-11T11:58:49.703Z,14.53
2022-12-11T12:01:18.931Z,15.03
2022-12-11T12:03:47.657Z,15.10
2022-12-11T12:06:44.791Z,16.00
2022-12-11T12:09:37.689Z,15.00
2022-12-11T12:12:11.064Z,14.90
2022-12-11T12:15:18.258Z,14.47
2022-12-11T12:17:56.332Z,15.13
2022-12-11T12:20:41.262Z,16.50
2022-12-11T12:23:37.106Z,15.37
2022-12-11T12:26:31.837Z,15.60
2022-12-11T12:29:26.944Z,16.00
2022-12-11T12:32:19.494Z,14.97
2022-12-11T12:35:30.713Z,17.17
2022-12-11T12:38:06.667Z,16.00
2022-12-11T12:40:36.443Z,15.80
2022-12-11T12:43:21.691Z,17.47
2022-12-11T12:45:48.496Z,15.63
2022-12-11T12:48:15.894Z,25.30
2022-12-11T12:50:46.175Z,17.53
2022-12-11T12:53:27.594Z,17.03
2022-12-11T12:55:55.248Z,15.67
2022-12-11T12:58:31.318Z,15.53
2022-12-11T13:01:16.445Z,16.70
2022-12-11T13:04:47.441Z,17.40
2022-12-11T13:07:29.546Z,16.93
2022-12-11T13:10:07.929Z,17.73
2022-12-11T13:12:44.825Z,17.23
2022-12-11T13:15:27.530Z,18.00
2022-12-11T13:17:54.637Z,16.70
2022-12-11T13:20:25.268Z,17.60
2022-12-11T13:23:07.212Z,17.50
2022-12-11T13:25:47.547Z,18.13
2022-12-11T13:28:39.328Z,18.23
2022-12-11T13:31:15.334Z,18.73
2022-12-11T13:33:48.495Z,18.23
2022-12-11T13:36:25.008Z,19.13
2022-12-11T13:39:17.326Z,19.23
2022-12-11T13:41:51.616Z,18.03
2022-12-11T13:44:30.695Z,19.33
2022-12-11T13:47:00.093Z,19.50
2022-12-11T13:49:32.422Z,20.23
2022-12-11T13:52:00.404Z,19.50
2022-12-11T13:54:29.056Z,21.07
2022-12-11T13:57:06.410Z,20.80
2022-12-11T13:59:36.814Z,20.87
2022-12-11T14:02:24.018Z,21.30
2022-12-11T14:04:58.528Z,22.53
2022-12-11T14:07:31.947Z,21.43
2022-12-11T14:10:23.568Z,20.70
2022-12-11T14:13:20.263Z,20.20
2022-12-11T14:15:47.325Z,20.37
2022-12-11T14:18:23.522Z,21.77
2022-12-11T14:21:01.526Z,22.03
2022-12-11T14:23:30.254Z,21.07
2022-12-11T14:26:20.985Z,22.67
2022-12-11T14:28:47.839Z,20.20
2022-12-11T14:31:18.098Z,20.27
2022-12-11T14:33:52.830Z,20.33
2022-12-11T14:36:20.360Z,21.30
2022-12-11T14:38:52.434Z,21.90
2022-12-11T14:41:25.110Z,21.33
2022-12-11T14:43:55.219Z,20.03
2022-12-11T14:46:43.883Z,20.97
2022-12-11T14:49:28.843Z,20.37
2022-12-11T14:51:57.524Z,19.67
2022-12-11T14:54:38.615Z,19.40
2022-12-11T14:57:07.877Z,19.23
2022-12-11T14:59:43.770Z,20.03
2022-12-11T15:02:24.911Z,21.93
2022-12-11T15:05:05.338Z,21.23
2022-12-11T15:07:32.792Z,19.87
2022-12-11T15:09:59.564Z,20.90
2022-12-11T15:12:26.385Z,21.03
2022-12-11T15:15:00.904Z,21.87
2022-12-11T15:17:28.462Z,20.53
2022-12-11T15:20:02.511Z,21.33
2022-12-11T15:22:32.163Z,21.17
2022-12-11T15:24:59.906Z,20.80
2022-12-11T15:27:36.882Z,22.00
2022-12-11T15:30:27.164Z,20.67
2022-12-11T15:33:06.003Z,22.03
2022-12-11T15:35:32.686Z,20.47
2022-12-11T15:38:00.172Z,23.17
2022-12-11T15:40:27.935Z,20.23
2022-12-11T15:42:55.633Z,21.37
2022-12-11T15:45:25.448Z,22.33
2022-12-11T15:47:52.678Z,20.73
2022-12-11T15:50:24.032Z,19.93
2022-12-11T15:52:52.147Z,21.37
2022-12-11T15:55:20.476Z,21.07
2022-12-11T15:57:52.691Z,21.53
2022-12-11T16:00:20.802Z,21.70
2022-12-11T16:02:47.766Z,21.20
2022-12-11T16:05:15.217Z,21.77
2022-12-11T16:07:42.364Z,20.13
2022-12-11T16:10:15.131Z,21.23
2022-12-11T16:12:42.845Z,21.60
2022-12-11T16:15:14.380Z,22.60
2022-12-11T16:17:43.148Z,22.50
2022-12-11T16:20:10.963Z,21.47
2022-12-11T16:22:37.943Z,21.37
2022-12-11T16:25:04.985Z,22.87
2022-12-11T16:27:31.865Z,21.50
2022-12-11T16:29:58.550Z,20.50
2022-12-11T16:32:25.243Z,22.70
2022-12-11T16:34:51.934Z,20.60
2022-12-11T16:37:18.643Z,20.57
2022-12-11T16:39:46.897Z,19.60
2022-12-11T16:42:13.699Z,21.37
2022-12-11T16:44:43.999Z,20.87
2022-12-11T16:47:10.835Z,20.10
2022-12-11T16:49:37.490Z,20.63
2022-12-11T16:52:04.288Z,21.30
2022-12-11T16:54:31.082Z,20.53
2022-12-11T16:56:57.738Z,20.93
2022-12-11T16:59:24.475Z,20.73
2022-12-11T17:01:51.338Z,20.70
2022-12-11T17:04:18.275Z,20.70
2022-12-11T17:06:46.321Z,22.53
2022-12-11T17:09:15.964Z,21.37
2022-12-11T17:11:42.616Z,22.33
2022-12-11T17:14:10.239Z,20.27
2022-12-11T17:16:36.938Z,20.20
2022-12-11T17:19:05.298Z,20.20
2022-12-11T17:21:31.966Z,20.73
2022-12-11T17:23:58.745Z,22.00
2022-12-11T17:26:25.557Z,21.93
2022-12-11T17:28:52.370Z,21.80
2022-12-11T17:31:20.081Z,22.97
2022-12-11T17:33:47.178Z,23.13
2022-12-11T17:36:16.554Z,20.47
2022-12-11T17:38:43.624Z,21.20
2022-12-11T17:41:16.912Z,20.30
2022-12-11T17:43:47.463Z,22.20
2022-12-11T17:46:14.445Z,20.53
2022-12-11T17:48:41.150Z,21.13
2022-12-11T17:51:09.530Z,21.90
2022-12-11T17:53:36.829Z,22.37
2022-12-11T17:56:06.523Z,20.67
2022-12-11T17:58:33.855Z,20.90
2022-12-11T18:01:01.100Z,19.90
2022-12-11T18:03:28.815Z,20.83
2022-12-11T18:05:56.770Z,20.20
2022-12-11T18:08:26.177Z,20.23
2022-12-11T18:10:54.311Z,19.87
2022-12-11T18:13:22.050Z,20.53
2022-12-11T18:16:00.758Z,22.13
2022-12-11T18:18:27.616Z,19.80
2022-12-11T18:20:54.271Z,19.70
2022-12-11T18:23:20.991Z,22.13
2022-12-11T18:25:47.628Z,21.17
2022-12-11T18:28:14.581Z,20.80
2022-12-11T18:30:41.318Z,23.53
2022-12-11T18:33:08.105Z,23.43
2022-12-11T18:35:34.762Z,21.13
2022-12-11T18:38:01.440Z,21.03
2022-12-11T18:40:28.882Z,19.57
2022-12-11T18:42:55.785Z,20.23
2022-12-11T18:45:22.443Z,20.67
2022-12-11T18:47:51.510Z,19.73
2022-12-11T18:50:18.660Z,22.53
2022-12-11T18:52:45.412Z,23.07
2022-12-11T18:55:12.541Z,21.23
2022-12-11T18:57:39.505Z,21.43
2022-12-11T19:00:07.532Z,20.40
2022-12-11T19:02:35.528Z,20.87
2022-12-11T19:05:02.273Z,20.47
2022-12-11T19:07:28.977Z,20.20
2022-12-11T19:09:55.712Z,22.47
2022-12-11T19:12:22.488Z,22.40
2022-12-11T19:14:49.212Z,22.07
2022-12-11T19:17:15.945Z,21.80
2022-12-11T19:19:44.879Z,20.33
2022-12-11T19:22:11.724Z,22.23
2022-12-11T19:24:38.532Z,21.30
2022-12-11T19:27:09.995Z,22.10
2022-12-11T19:29:39.877Z,22.50
2022-12-11T19:32:06.542Z,22.80
2022-12-11T19:34:33.311Z,22.10
2022-12-11T19:37:00.214Z,22.30
2022-12-11T19:39:26.941Z,22.37
2022-12-11T19:41:53.645Z,22.87
2022-12-11T19:44:20.345Z,22.50
2022-12-11T19:46:47.192Z,23.43
2022-12-11T19:49:13.999Z,21.73
2022-12-11T19:51:41.600Z,21.03
2022-12-11T19:54:11.754Z,21.83
2022-12-11T19:56:38.532Z,22.80
2022-12-11T19:59:08.328Z,21.20
2022-12-11T20:01:37.501Z,21.57
2022-12-11T20:04:07.029Z,21.37
2022-12-11T20:06:36.813Z,21.30
2022-12-11T20:09:05.901Z,21.57
2022-12-11T20:11:33.553Z,22.80
2022-12-11T20:14:00.562Z,20.20
2022-12-11T20:17:01.639Z,21.00
2022-12-11T20:19:15.020Z,20.50
2022-12-11T20:21:47.528Z,20.37
2022-12-11T20:24:14.222Z,21.37
2022-12-11T20:26:41.219Z,21.13
2022-12-11T20:29:08.416Z,20.83
2022-12-11T20:31:37.149Z,20.20
2022-12-11T20:34:04.927Z,21.87
2022-12-11T20:36:31.698Z,20.53
2022-12-11T20:38:58.663Z,20.67
2022-12-11T20:41:26.281Z,22.20
2022-12-11T20:43:54.139Z,22.80
2022-12-11T20:46:24.913Z,22.60
2022-12-11T20:48:52.150Z,22.60
2022-12-11T20:51:25.859Z,22.00
2022-12-11T20:53:59.051Z,22.97
2022-12-11T20:56:29.502Z,22.50
2022-12-11T20:58:57.440Z,22.17
2022-12-11T21:01:27.068Z,22.57
2022-12-11T21:03:54.582Z,20.70
2022-12-11T21:06:31.667Z,21.53
2022-12-11T21:09:04.837Z,22.50
2022-12-11T21:11:34.947Z,22.57
2022-12-11T21:14:01.720Z,21.83
2022-12-11T21:16:28.847Z,22.20
2022-12-11T21:18:59.880Z,22.33
2022-12-11T21:21:26.781Z,22.80
2022-12-11T21:23:53.573Z,22.37
2022-12-11T21:26:20.540Z,22.07
2022-12-11T21:28:47.404Z,22.10
2022-12-11T21:31:18.635Z,23.07
2022-12-11T21:33:45.684Z,22.20
2022-12-11T21:36:13.910Z,22.50
2022-12-11T21:38:44.067Z,21.57
2022-12-11T21:41:23.079Z,22.30
2022-12-11T21:46:38.708Z,21.93
2022-12-11T21:49:05.706Z,22.30
2022-12-11T21:51:37.916Z,21.27
2022-12-11T21:54:13.135Z,23.33
2022-12-11T21:56:40.174Z,21.70
2022-12-11T21:59:07.192Z,21.80
2022-12-11T22:01:38.455Z,28.33
2022-12-11T22:04:05.674Z,25.67
2022-12-11T22:06:32.955Z,23.40
2022-12-11T22:08:59.892Z,22.27
2022-12-11T22:11:30.172Z,23.00
2022-12-11T22:13:57.676Z,22.53
2022-12-11T22:16:25.179Z,22.63
2022-12-11T22:18:51.957Z,23.70
2022-12-11T22:21:19.483Z,22.37
2022-12-11T22:23:46.635Z,21.97
2022-12-11T22:26:24.134Z,21.73
2022-12-11T22:28:51.183Z,20.57
2022-12-11T22:31:21.247Z,21.23
2022-12-11T22:33:50.049Z,22.30
2022-12-11T22:36:20.101Z,22.43
2022-12-11T22:38:47.334Z,21.27
2022-12-11T22:41:24.451Z,21.10
2022-12-11T22:43:51.687Z,22.30
2022-12-11T22:46:20.603Z,20.57
2022-12-11T22:48:47.577Z,20.43
2022-12-11T22:51:17.415Z,22.07
2022-12-11T22:53:44.183Z,21.37
2022-12-11T22:56:12.771Z,22.90
2022-12-11T22:58:40.097Z,20.87
2022-12-11T23:01:13.342Z,21.43
2022-12-11T23:03:40.530Z,21.00
2022-12-11T23:06:13.177Z,20.33
2022-12-11T23:08:41.966Z,21.50
2022-12-11T23:11:15.302Z,22.07
2022-12-11T23:13:42.651Z,23.63
2022-12-11T23:16:10.237Z,21.43
2022-12-11T23:18:37.856Z,23.37
2022-12-11T23:21:05.355Z,22.80
2022-12-11T23:23:33.222Z,21.03
2022-12-11T23:25:59.944Z,19.77
2022-12-11T23:28:26.857Z,20.63
2022-12-11T23:30:53.709Z,21.57
2022-12-11T23:33:20.427Z,21.17
2022-12-11T23:35:47.194Z,21.40
2022-12-11T23:38:13.893Z,21.37
2022-12-11T23:40:40.668Z,21.97
2022-12-11T23:43:07.399Z,21.43
2022-12-11T23:45:34.050Z,21.27
2022-12-11T23:48:00.852Z,21.63
2022-12-11T23:50:27.630Z,22.17
2022-12-11T23:52:54.323Z,22.07
2022-12-11T23:55:21.120Z,21.23
2022-12-11T23:57:47.825Z,19.57
